createdAt,value
2019-02-08T00:00:51.510Z,4.77
2019-02-08T00:01:51.472Z,4.80
2019-02-08T00:02:51.461Z,4.78
2019-02-08T00:03:51.457Z,4.73
2019-02-08T00:04:51.445Z,4.77
2019-02-08T00:05:51.466Z,4.77
2019-02-08T00:06:51.957Z,4.78
2019-02-08T00:07:51.422Z,4.73
2019-02-08T00:08:51.410Z,4.80
2019-02-08T00:09:51.408Z,4.73
2019-02-08T00:10:51.380Z,4.71
2019-02-08T00:11:51.386Z,4.70
2019-02-08T00:12:51.357Z,4.59
2019-02-08T00:13:51.354Z,4.66
2019-02-08T00:14:51.333Z,4.67
2019-02-08T00:15:51.358Z,4.80
2019-02-08T00:16:51.322Z,4.71
2019-02-08T00:17:52.250Z,4.73
2019-02-08T00:18:51.299Z,4.66
2019-02-08T00:19:51.280Z,4.77
2019-02-08T00:20:51.300Z,4.80
2019-02-08T00:21:51.267Z,4.77
2019-02-08T00:22:51.286Z,4.82
2019-02-08T00:23:51.250Z,4.71
2019-02-08T00:24:51.317Z,4.77
2019-02-08T00:25:51.219Z,4.75
2019-02-08T00:26:51.259Z,4.74
2019-02-08T00:27:51.207Z,4.74
2019-02-08T00:28:51.189Z,4.74
2019-02-08T00:29:51.193Z,4.63
2019-02-08T00:30:51.170Z,4.62
2019-02-08T00:31:51.183Z,4.63
2019-02-08T00:32:51.152Z,4.62
2019-02-08T00:33:51.137Z,4.58
2019-02-08T00:34:51.121Z,4.58
2019-02-08T00:35:51.122Z,4.55
2019-02-08T00:36:51.134Z,4.56
2019-02-08T00:37:51.089Z,4.50
2019-02-08T00:38:51.081Z,4.52
2019-02-08T00:39:51.074Z,4.44
2019-02-08T00:40:51.063Z,4.52
2019-02-08T00:41:51.057Z,4.45
2019-02-08T00:42:51.073Z,4.55
2019-02-08T00:43:51.026Z,4.52
2019-02-08T00:44:51.018Z,4.40
2019-02-08T00:45:51.005Z,4.49
2019-02-08T00:46:50.993Z,4.45
2019-02-08T00:47:50.991Z,4.58
2019-02-08T00:48:50.999Z,4.45
2019-02-08T00:49:50.967Z,4.50
2019-02-08T00:50:50.962Z,4.55
2019-02-08T00:51:50.943Z,4.63
2019-02-08T00:52:50.935Z,4.59
2019-02-08T00:53:50.947Z,4.53
2019-02-08T00:54:50.918Z,4.52
2019-02-08T00:55:50.899Z,4.59
2019-02-08T00:56:50.889Z,4.62
2019-02-08T00:57:50.882Z,4.60
2019-02-08T00:58:50.904Z,4.60
2019-02-08T00:59:50.863Z,4.66
2019-02-08T01:00:50.853Z,4.56
2019-02-08T01:01:50.844Z,4.62
2019-02-08T01:02:50.831Z,4.60
2019-02-08T01:03:50.818Z,4.58
2019-02-08T01:04:50.836Z,4.66
2019-02-08T01:05:50.791Z,4.59
2019-02-08T01:06:50.782Z,4.59
2019-02-08T01:07:50.782Z,4.48
2019-02-08T01:08:50.768Z,4.53
2019-02-08T01:09:50.776Z,4.52
2019-02-08T01:10:50.741Z,4.53
2019-02-08T01:11:50.736Z,4.58
2019-02-08T01:12:50.754Z,4.58
2019-02-08T01:13:50.715Z,4.62
2019-02-08T01:14:50.706Z,4.56
2019-02-08T01:15:50.687Z,4.52
2019-02-08T01:16:50.675Z,4.59
2019-02-08T01:17:50.670Z,4.59
2019-02-08T01:18:50.677Z,4.48
2019-02-08T01:19:50.651Z,4.50
2019-02-08T01:20:50.659Z,4.44
2019-02-08T01:21:50.632Z,4.38
2019-02-08T01:22:50.621Z,4.40
2019-02-08T01:23:50.603Z,4.35
2019-02-08T01:24:50.591Z,4.31
2019-02-08T01:25:50.621Z,4.38
2019-02-08T01:26:50.579Z,4.28
2019-02-08T01:27:50.561Z,4.28
2019-02-08T01:28:50.554Z,4.31
2019-02-08T01:29:50.550Z,4.23
2019-02-08T01:30:50.557Z,4.24
2019-02-08T01:31:50.525Z,4.37
2019-02-08T01:32:50.514Z,4.31
2019-02-08T01:33:50.505Z,4.35
2019-02-08T01:34:50.496Z,4.37
2019-02-08T01:35:50.476Z,4.32
2019-02-08T01:36:50.486Z,4.24
2019-02-08T01:37:50.457Z,4.31
2019-02-08T01:38:50.467Z,4.28
2019-02-08T01:39:50.442Z,4.31
2019-02-08T01:40:50.429Z,4.34
2019-02-08T01:41:50.433Z,4.34
2019-02-08T01:42:50.410Z,4.44
2019-02-08T01:43:50.401Z,4.35
2019-02-08T01:44:50.385Z,4.31
2019-02-08T01:45:50.374Z,4.26
2019-02-08T01:46:50.384Z,4.31
2019-02-08T01:47:50.349Z,4.22
2019-02-08T01:48:50.341Z,4.28
2019-02-08T01:49:50.328Z,4.30
2019-02-08T01:50:50.322Z,4.28
2019-02-08T01:51:50.342Z,4.24
2019-02-08T01:52:50.302Z,4.14
2019-02-08T01:53:50.292Z,4.17
2019-02-08T01:54:50.280Z,4.23
2019-02-08T01:55:50.266Z,4.24
2019-02-08T01:56:50.254Z,4.28
2019-02-08T01:57:50.285Z,4.37
2019-02-08T01:58:50.238Z,4.34
2019-02-08T01:59:50.225Z,4.37
2019-02-08T02:00:50.213Z,4.40
2019-02-08T02:01:50.201Z,4.41
2019-02-08T02:02:50.191Z,4.41
2019-02-08T02:03:50.219Z,4.42
2019-02-08T02:04:50.186Z,4.44
2019-02-08T02:05:50.163Z,4.55
2019-02-08T02:06:50.155Z,4.58
2019-02-08T02:07:50.140Z,4.52
2019-02-08T02:08:50.163Z,4.44
2019-02-08T02:09:50.116Z,4.49
2019-02-08T02:10:50.104Z,4.55
2019-02-08T02:11:50.099Z,4.50
2019-02-08T02:12:50.094Z,4.53
2019-02-08T02:13:50.074Z,4.44
2019-02-08T02:14:50.087Z,4.44
2019-02-08T02:15:50.057Z,4.41
2019-02-08T02:16:50.047Z,4.35
2019-02-08T02:17:50.038Z,4.37
2019-02-08T02:18:50.032Z,4.24
2019-02-08T02:19:50.031Z,4.26
2019-02-08T02:20:50.000Z,4.31
2019-02-08T02:21:49.993Z,4.26
2019-02-08T02:22:49.980Z,4.26
2019-02-08T02:23:56.056Z,4.22
2019-02-08T02:24:50.982Z,4.23
2019-02-08T02:25:49.974Z,4.17
2019-02-08T02:26:49.942Z,4.16
2019-02-08T02:27:49.932Z,4.17
2019-02-08T02:28:49.914Z,4.34
2019-02-08T02:29:49.909Z,4.30
2019-02-08T02:30:49.920Z,4.19
2019-02-08T02:31:49.889Z,4.22
2019-02-08T02:32:49.874Z,4.20
2019-02-08T02:33:49.872Z,4.16
2019-02-08T02:34:49.851Z,4.13
2019-02-08T02:35:49.890Z,4.12
2019-02-08T02:36:49.837Z,4.12
2019-02-08T02:37:49.839Z,4.10
2019-02-08T02:38:49.818Z,4.05
2019-02-08T02:39:49.805Z,3.99
2019-02-08T02:40:49.793Z,4.05
2019-02-08T02:41:49.810Z,4.04
2019-02-08T02:42:49.767Z,4.13
2019-02-08T02:43:49.763Z,4.02
2019-02-08T02:44:49.751Z,4.05
2019-02-08T02:45:49.741Z,3.96
2019-02-08T02:46:49.727Z,4.08
2019-02-08T02:47:49.765Z,4.10
2019-02-08T02:48:49.714Z,4.10
2019-02-08T02:49:49.720Z,4.14
2019-02-08T02:50:49.692Z,4.20
2019-02-08T02:51:49.676Z,4.16
2019-02-08T02:52:49.702Z,4.19
2019-02-08T02:53:49.660Z,4.26
2019-02-08T02:54:49.681Z,4.31
2019-02-08T02:55:49.638Z,4.40
2019-02-08T02:56:49.625Z,4.38
2019-02-08T02:57:49.634Z,4.28
2019-02-08T02:58:49.626Z,4.30
2019-02-08T02:59:49.591Z,4.30
2019-02-08T03:00:49.578Z,4.38
2019-02-08T03:01:49.647Z,4.40
2019-02-08T03:02:49.562Z,4.38
2019-02-08T03:03:50.347Z,4.40
2019-02-08T03:04:49.543Z,4.40
2019-02-08T03:05:49.563Z,4.41
2019-02-08T03:06:49.520Z,4.40
2019-02-08T03:07:49.507Z,4.35
2019-02-08T03:08:49.526Z,4.40
2019-02-08T03:09:49.482Z,4.44
2019-02-08T03:10:49.479Z,4.60
2019-02-08T03:11:49.474Z,4.59
2019-02-08T03:12:49.457Z,4.59
2019-02-08T03:13:49.444Z,4.55
2019-02-08T03:14:49.453Z,4.50
2019-02-08T03:15:49.419Z,4.42
2019-02-08T03:16:49.408Z,4.37
2019-02-08T03:17:49.407Z,4.37
2019-02-08T03:18:49.394Z,4.35
2019-02-08T03:19:49.396Z,4.35
2019-02-08T03:20:49.366Z,4.40
2019-02-08T03:21:49.356Z,4.30
2019-02-08T03:22:49.348Z,4.37
2019-02-08T03:23:49.341Z,4.14
2019-02-08T03:24:49.352Z,4.19
2019-02-08T03:25:49.320Z,4.22
2019-02-08T03:26:49.315Z,4.30
2019-02-08T03:27:49.290Z,4.35
2019-02-08T03:28:49.282Z,4.40
2019-02-08T03:29:49.307Z,4.34
2019-02-08T03:30:49.289Z,4.41
2019-02-08T03:31:49.261Z,4.48
2019-02-08T03:32:49.249Z,4.52
2019-02-08T03:33:49.232Z,4.45
2019-02-08T03:34:49.248Z,4.50
2019-02-08T03:35:49.213Z,4.41
2019-02-08T03:36:49.203Z,4.41
2019-02-08T03:37:49.193Z,4.40
2019-02-08T03:38:49.180Z,4.42
2019-02-08T03:39:49.168Z,4.34
2019-02-08T03:40:49.191Z,4.41
2019-02-08T03:41:49.145Z,4.42
2019-02-08T03:42:49.136Z,4.37
2019-02-08T03:43:49.128Z,4.40
2019-02-08T03:44:49.116Z,4.40
2019-02-08T03:45:49.109Z,4.38
2019-02-08T03:46:49.121Z,4.41
2019-02-08T03:47:49.080Z,4.35
2019-02-08T03:48:49.067Z,4.34
2019-02-08T03:49:49.064Z,4.31
2019-02-08T03:50:49.057Z,4.38
2019-02-08T03:51:49.069Z,4.42
2019-02-08T03:52:49.045Z,4.41
2019-02-08T03:53:49.016Z,4.45
2019-02-08T03:54:57.858Z,4.50
2019-02-08T03:55:52.688Z,4.48
2019-02-08T03:56:50.019Z,4.45
2019-02-08T03:57:48.975Z,4.56
2019-02-08T03:58:48.966Z,4.50
2019-02-08T03:59:48.953Z,4.48
2019-02-08T04:00:48.949Z,4.41
2019-02-08T04:01:48.938Z,4.41
2019-02-08T04:02:48.960Z,4.38
2019-02-08T04:03:48.910Z,4.35
2019-02-08T04:04:48.900Z,4.38
2019-02-08T04:05:48.894Z,4.38
2019-02-08T04:06:48.884Z,4.40
2019-02-08T04:07:48.874Z,4.35
2019-02-08T04:08:48.899Z,4.35
2019-02-08T04:09:48.856Z,4.38
2019-02-08T04:10:48.837Z,4.40
2019-02-08T04:11:48.825Z,4.40
2019-02-08T04:12:48.814Z,4.42
2019-02-08T04:13:48.820Z,4.48
2019-02-08T04:14:48.822Z,4.48
2019-02-08T04:15:48.789Z,4.50
2019-02-08T04:16:48.780Z,4.49
2019-02-08T04:17:48.765Z,4.55
2019-02-08T04:18:48.755Z,4.50
2019-02-08T04:19:48.770Z,4.41
2019-02-08T04:20:48.738Z,4.44
2019-02-08T04:21:48.723Z,4.45
2019-02-08T04:22:48.712Z,4.35
2019-02-08T04:23:49.146Z,4.38
2019-02-08T04:24:50.737Z,4.38
2019-02-08T04:25:48.683Z,4.38
2019-02-08T04:26:48.673Z,4.37
2019-02-08T04:27:48.667Z,4.32
2019-02-08T04:28:48.654Z,4.45
2019-02-08T04:29:48.655Z,4.48
2019-02-08T04:30:48.660Z,4.48
2019-02-08T04:31:48.617Z,4.35
2019-02-08T04:32:48.615Z,4.41
2019-02-08T04:33:48.614Z,4.48
2019-02-08T04:34:48.596Z,4.50
2019-02-08T04:35:48.581Z,4.45
2019-02-08T04:36:48.592Z,4.48
2019-02-08T04:37:48.559Z,4.45
2019-02-08T04:38:48.549Z,4.49
2019-02-08T04:39:48.535Z,4.50
2019-02-08T04:40:48.525Z,4.45
2019-02-08T04:41:48.510Z,4.48
2019-02-08T04:42:48.522Z,4.50
2019-02-08T04:43:48.502Z,4.44
2019-02-08T04:44:48.484Z,4.45
2019-02-08T04:45:48.469Z,4.40
2019-02-08T04:46:48.455Z,4.44
2019-02-08T04:47:48.473Z,4.40
2019-02-08T04:48:48.436Z,4.45
2019-02-08T04:49:48.429Z,4.42
2019-02-08T04:50:48.432Z,4.35
2019-02-08T04:51:48.401Z,4.40
2019-02-08T04:52:48.429Z,4.49
2019-02-08T04:53:48.389Z,4.48
2019-02-08T04:54:48.379Z,4.52
2019-02-08T04:55:48.366Z,4.48
2019-02-08T04:56:48.363Z,4.49
2019-02-08T04:57:48.349Z,4.49
2019-02-08T04:58:48.364Z,4.49
2019-02-08T04:59:48.317Z,4.40
2019-02-08T05:00:48.310Z,4.42
2019-02-08T05:01:48.305Z,4.44
2019-02-08T05:02:48.294Z,4.49
2019-02-08T05:03:48.315Z,4.58
2019-02-08T05:04:48.273Z,4.53
2019-02-08T05:05:48.255Z,4.49
2019-02-08T05:06:48.245Z,4.44
2019-02-08T05:07:48.243Z,4.44
2019-02-08T05:08:48.252Z,4.48
2019-02-08T05:09:48.244Z,4.45
2019-02-08T05:10:48.202Z,4.44
2019-02-08T05:11:48.192Z,4.48
2019-02-08T05:12:48.182Z,4.45
2019-02-08T05:13:48.177Z,4.40
2019-02-08T05:14:48.174Z,4.41
2019-02-08T05:15:48.177Z,4.40
2019-02-08T05:16:48.148Z,4.40
2019-02-08T05:17:48.133Z,4.35
2019-02-08T05:18:48.127Z,4.40
2019-02-08T05:19:48.109Z,4.40
2019-02-08T05:20:48.127Z,4.35
2019-02-08T05:21:48.103Z,4.34
2019-02-08T05:22:48.092Z,4.42
2019-02-08T05:23:48.071Z,4.40
2019-02-08T05:24:48.081Z,4.38
2019-02-08T05:25:48.050Z,4.40
2019-02-08T05:26:48.097Z,4.35
2019-02-08T05:27:48.033Z,4.40
2019-02-08T05:28:48.020Z,4.40
2019-02-08T05:29:48.006Z,4.42
2019-02-08T05:30:48.057Z,4.37
2019-02-08T05:31:47.983Z,4.38
2019-02-08T05:32:47.973Z,4.41
2019-02-08T05:33:48.120Z,4.37
2019-02-08T05:34:47.956Z,4.45
2019-02-08T05:35:48.589Z,4.40
2019-02-08T05:36:47.952Z,4.45
2019-02-08T05:37:47.937Z,4.44
2019-02-08T05:38:47.908Z,4.48
2019-02-08T05:39:47.903Z,4.37
2019-02-08T05:40:47.922Z,4.48
2019-02-08T05:41:47.879Z,4.42
2019-02-08T05:42:47.864Z,4.32
2019-02-08T05:43:47.885Z,4.34
2019-02-08T05:44:47.843Z,4.35
2019-02-08T05:45:47.846Z,4.38
2019-02-08T05:46:47.861Z,4.31
2019-02-08T05:47:47.862Z,4.30
2019-02-08T05:48:47.807Z,4.38
2019-02-08T05:49:47.819Z,4.35
2019-02-08T05:50:47.783Z,4.28
2019-02-08T05:51:47.775Z,4.30
2019-02-08T05:52:47.782Z,4.37
2019-02-08T05:53:47.779Z,4.37
2019-02-08T05:54:54.290Z,4.41
2019-02-08T05:55:48.724Z,4.34
2019-02-08T05:56:47.716Z,4.41
2019-02-08T05:57:47.713Z,4.49
2019-02-08T05:58:47.726Z,4.45
2019-02-08T05:59:48.664Z,4.50
2019-02-08T06:00:47.681Z,4.52
2019-02-08T06:01:47.753Z,4.55
2019-02-08T06:02:47.894Z,4.56
2019-02-08T06:03:47.942Z,4.59
2019-02-08T06:04:47.763Z,4.67
2019-02-08T06:05:47.702Z,4.62
2019-02-08T06:06:47.623Z,4.62
2019-02-08T06:07:47.685Z,4.60
2019-02-08T06:08:47.627Z,4.62
2019-02-08T06:09:47.595Z,4.60
2019-02-08T06:10:47.577Z,4.58
2019-02-08T06:11:47.569Z,4.56
2019-02-08T06:12:47.562Z,4.60
2019-02-08T06:13:47.573Z,4.56
2019-02-08T06:14:47.539Z,4.59
2019-02-08T06:15:47.529Z,4.60
2019-02-08T06:16:47.511Z,4.56
2019-02-08T06:17:47.513Z,4.50
2019-02-08T06:18:47.497Z,4.38
2019-02-08T06:19:47.517Z,4.34
2019-02-08T06:20:47.474Z,4.42
2019-02-08T06:21:47.461Z,4.42
2019-02-08T06:22:47.448Z,4.44
2019-02-08T06:23:47.438Z,4.48
2019-02-08T06:24:47.425Z,4.34
2019-02-08T06:25:47.456Z,4.35
2019-02-08T06:26:47.419Z,4.34
2019-02-08T06:27:47.396Z,4.42
2019-02-08T06:28:47.386Z,4.42
2019-02-08T06:29:47.379Z,4.41
2019-02-08T06:30:47.368Z,4.38
2019-02-08T06:31:47.382Z,4.41
2019-02-08T06:32:47.352Z,4.37
2019-02-08T06:33:47.331Z,4.35
2019-02-08T06:34:47.323Z,4.38
2019-02-08T06:35:47.317Z,4.40
2019-02-08T06:36:47.321Z,4.48
2019-02-08T06:37:47.295Z,4.56
2019-02-08T06:38:47.287Z,4.56
2019-02-08T06:39:47.367Z,4.66
2019-02-08T06:40:47.266Z,4.67
2019-02-08T06:41:47.272Z,4.68
2019-02-08T06:42:47.251Z,4.71
2019-02-08T06:43:47.231Z,4.71
2019-02-08T06:44:47.240Z,4.74
2019-02-08T06:45:47.216Z,4.62
2019-02-08T06:46:47.227Z,4.60
2019-02-08T06:47:47.182Z,4.60
2019-02-08T06:48:47.205Z,4.62
2019-02-08T06:49:47.171Z,4.58
2019-02-08T06:50:47.154Z,4.66
2019-02-08T06:51:47.144Z,4.59
2019-02-08T06:52:47.175Z,4.70
2019-02-08T06:53:47.119Z,4.78
2019-02-08T06:54:47.110Z,4.67
2019-02-08T06:55:47.101Z,4.68
2019-02-08T06:56:47.090Z,4.59
2019-02-08T06:57:47.115Z,4.75
2019-02-08T06:58:47.113Z,4.73
2019-02-08T06:59:47.058Z,4.73
2019-02-08T07:00:47.052Z,4.73
2019-02-08T07:01:47.049Z,4.84
2019-02-08T07:02:47.030Z,4.80
2019-02-08T07:03:47.041Z,4.75
2019-02-08T07:04:47.013Z,4.74
2019-02-08T07:05:46.995Z,4.75
2019-02-08T07:06:46.984Z,4.84
2019-02-08T07:07:46.971Z,4.78
2019-02-08T07:08:46.983Z,4.84
2019-02-08T07:09:46.954Z,4.89
2019-02-08T07:10:46.952Z,4.89
2019-02-08T07:11:46.991Z,4.93
2019-02-08T07:12:46.930Z,5.05
2019-02-08T07:13:46.933Z,4.97
2019-02-08T07:14:46.900Z,4.92
2019-02-08T07:15:46.894Z,4.77
2019-02-08T07:16:46.892Z,4.77
2019-02-08T07:17:46.866Z,4.78
2019-02-08T07:18:46.889Z,4.74
2019-02-08T07:19:46.844Z,4.84
2019-02-08T07:20:46.837Z,4.90
2019-02-08T07:21:46.829Z,4.96
2019-02-08T07:22:46.831Z,4.87
2019-02-08T07:23:46.807Z,4.82
2019-02-08T07:24:46.827Z,4.84
2019-02-08T07:25:46.817Z,4.84
2019-02-08T07:26:46.774Z,4.84
2019-02-08T07:27:46.759Z,4.86
2019-02-08T07:28:46.752Z,4.99
2019-02-08T07:29:46.785Z,5.05
2019-02-08T07:30:46.741Z,5.04
2019-02-08T07:31:46.719Z,5.07
2019-02-08T07:32:46.708Z,5.00
2019-02-08T07:33:46.708Z,4.92
2019-02-08T07:34:46.693Z,4.92
2019-02-08T07:35:46.706Z,4.94
2019-02-08T07:36:46.670Z,5.05
2019-02-08T07:37:46.654Z,5.02
2019-02-08T07:38:46.643Z,4.87
2019-02-08T07:39:46.630Z,5.02
2019-02-08T07:40:46.641Z,5.11
2019-02-08T07:41:46.642Z,4.97
2019-02-08T07:42:46.605Z,5.08
2019-02-08T07:43:46.616Z,5.14
2019-02-08T07:44:46.586Z,5.15
2019-02-08T07:45:46.596Z,5.15
2019-02-08T07:46:46.561Z,5.28
2019-02-08T07:47:46.556Z,5.21
2019-02-08T07:48:46.550Z,5.23
2019-02-08T07:49:46.533Z,5.28
2019-02-08T07:50:46.559Z,5.41
2019-02-08T07:51:46.514Z,5.38
2019-02-08T07:52:46.500Z,5.53
2019-02-08T07:53:46.491Z,5.62
2019-02-08T07:54:46.480Z,5.68
2019-02-08T07:55:46.477Z,5.66
2019-02-08T07:56:46.497Z,5.75
2019-02-08T07:57:46.450Z,5.86
2019-02-08T07:58:46.437Z,5.94
2019-02-08T07:59:46.436Z,5.91
2019-02-08T08:00:46.414Z,5.87
2019-02-08T08:01:46.405Z,5.94
2019-02-08T08:02:46.422Z,5.90
2019-02-08T08:03:46.386Z,6.09
2019-02-08T08:04:46.372Z,6.01
2019-02-08T08:05:46.365Z,6.08
2019-02-08T08:06:46.360Z,6.16
2019-02-08T08:07:46.366Z,6.19
2019-02-08T08:08:46.444Z,6.05
2019-02-08T08:09:46.318Z,6.05
2019-02-08T08:10:46.314Z,6.20
2019-02-08T08:11:46.293Z,6.17
2019-02-08T08:12:46.306Z,6.11
2019-02-08T08:13:46.276Z,6.19
2019-02-08T08:14:46.264Z,6.12
2019-02-08T08:15:46.258Z,6.26
2019-02-08T08:16:46.268Z,6.26
2019-02-08T08:17:46.300Z,6.41
2019-02-08T08:18:46.251Z,6.39
2019-02-08T08:19:46.216Z,6.45
2019-02-08T08:20:46.205Z,6.42
2019-02-08T08:21:46.186Z,6.41
2019-02-08T08:22:46.192Z,6.52
2019-02-08T08:23:46.187Z,6.44
2019-02-08T08:24:46.151Z,6.41
2019-02-08T08:25:46.145Z,6.48
2019-02-08T08:26:46.137Z,6.59
2019-02-08T08:27:46.178Z,6.59
2019-02-08T08:28:46.345Z,6.52
2019-02-08T08:29:46.098Z,6.62
2019-02-08T08:30:46.093Z,6.54
2019-02-08T08:31:46.148Z,6.62
2019-02-08T08:32:46.097Z,6.59
2019-02-08T08:33:46.159Z,6.63
2019-02-08T08:34:47.141Z,6.56
2019-02-08T08:35:46.277Z,6.48
2019-02-08T08:36:46.204Z,6.41
2019-02-08T08:37:46.170Z,6.52
2019-02-08T08:38:46.871Z,6.41
2019-02-08T08:39:47.246Z,6.49
2019-02-08T08:40:46.109Z,6.56
2019-02-08T08:41:46.109Z,6.62
2019-02-08T08:42:46.386Z,7.20
2019-02-08T08:43:46.205Z,8.58
2019-02-08T08:44:46.080Z,9.73
2019-02-08T08:45:46.026Z,10.93
2019-02-08T08:46:46.000Z,11.48
2019-02-08T08:47:45.948Z,12.43
2019-02-08T08:48:46.055Z,12.94
2019-02-08T08:49:46.014Z,13.83
2019-02-08T08:50:45.914Z,13.59
2019-02-08T08:51:46.009Z,13.96
2019-02-08T08:52:45.964Z,14.41
2019-02-08T08:53:45.949Z,14.88
2019-02-08T08:54:45.900Z,15.15
2019-02-08T08:55:45.985Z,15.83
2019-02-08T08:56:45.893Z,16.09
2019-02-08T08:57:45.843Z,16.32
2019-02-08T08:58:45.864Z,16.75
2019-02-08T08:59:45.892Z,16.84
2019-02-08T09:00:45.900Z,16.31
2019-02-08T09:01:45.931Z,15.82
2019-02-08T09:02:45.839Z,16.54
2019-02-08T09:03:45.845Z,17.02
2019-02-08T09:04:45.794Z,16.35
2019-02-08T09:05:45.840Z,15.49
2019-02-08T09:06:45.886Z,14.11
2019-02-08T09:07:45.739Z,13.08
2019-02-08T09:08:45.739Z,12.07
2019-02-08T09:09:45.714Z,11.30
2019-02-08T09:10:45.718Z,12.67
2019-02-08T09:11:45.711Z,12.83
2019-02-08T09:12:45.699Z,14.03
2019-02-08T09:13:45.664Z,15.27
2019-02-08T09:14:45.676Z,15.91
2019-02-08T09:15:45.639Z,16.87
2019-02-08T09:16:45.639Z,17.44
2019-02-08T09:17:45.668Z,17.52
2019-02-08T09:18:45.658Z,16.93
2019-02-08T09:19:45.572Z,17.09
2019-02-08T09:20:45.652Z,17.26
2019-02-08T09:21:45.762Z,17.56
2019-02-08T09:22:46.383Z,17.78
2019-02-08T09:23:45.572Z,18.01
2019-02-08T09:24:45.729Z,18.33
2019-02-08T09:25:49.920Z,18.66
2019-02-08T09:26:45.491Z,18.66
2019-02-08T09:27:45.554Z,18.95
2019-02-08T09:28:45.487Z,18.52
2019-02-08T09:29:45.497Z,18.01
2019-02-08T09:30:45.597Z,18.05
2019-02-08T09:31:45.553Z,17.98
2019-02-08T09:32:45.537Z,17.19
2019-02-08T09:33:45.546Z,16.15
2019-02-08T09:34:45.405Z,15.46
2019-02-08T09:35:45.403Z,14.41
2019-02-08T09:36:47.459Z,13.60
2019-02-08T09:37:45.373Z,13.59
2019-02-08T09:38:45.365Z,13.78
2019-02-08T09:39:45.369Z,13.53
2019-02-08T09:40:45.339Z,13.27
2019-02-08T09:41:45.330Z,13.46
2019-02-08T09:42:45.321Z,13.67
2019-02-08T09:43:45.306Z,13.97
2019-02-08T09:44:45.321Z,13.99
2019-02-08T09:45:45.280Z,13.86
2019-02-08T09:46:45.276Z,13.67
2019-02-08T09:47:45.259Z,13.28
2019-02-08T09:48:45.247Z,13.04
2019-02-08T09:49:45.276Z,13.11
2019-02-08T09:50:45.235Z,13.71
2019-02-08T09:51:47.418Z,14.23
2019-02-08T09:52:45.223Z,14.82
2019-02-08T09:53:45.195Z,15.52
2019-02-08T09:54:45.184Z,16.12
2019-02-08T09:55:57.844Z,16.15
2019-02-08T09:56:46.174Z,16.64
2019-02-08T09:57:45.158Z,16.89
2019-02-08T09:58:45.141Z,17.36
2019-02-08T09:59:45.135Z,18.13
2019-02-08T10:00:45.158Z,18.74
2019-02-08T10:01:45.116Z,19.47
2019-02-08T10:02:45.105Z,19.63
2019-02-08T10:03:45.092Z,19.59
2019-02-08T10:04:45.078Z,18.71
2019-02-08T10:05:45.069Z,18.98
2019-02-08T10:06:45.086Z,19.49
2019-02-08T10:07:45.056Z,19.69
2019-02-08T10:08:45.044Z,19.51
2019-02-08T10:09:45.046Z,19.40
2019-02-08T10:10:45.012Z,19.09
2019-02-08T10:11:45.013Z,18.59
2019-02-08T10:12:45.031Z,17.87
2019-02-08T10:13:44.993Z,17.36
2019-02-08T10:14:44.977Z,16.35
2019-02-08T10:15:44.961Z,15.80
2019-02-08T10:16:44.950Z,15.27
2019-02-08T10:17:44.941Z,14.81
2019-02-08T10:18:44.955Z,14.58
2019-02-08T10:19:44.928Z,14.23
2019-02-08T10:20:44.911Z,13.90
2019-02-08T10:21:44.908Z,13.33
2019-02-08T10:22:44.892Z,12.90
2019-02-08T10:23:44.909Z,12.73
2019-02-08T10:24:44.865Z,12.42
2019-02-08T10:25:44.860Z,12.12
2019-02-08T10:26:44.853Z,11.70
2019-02-08T10:27:44.836Z,11.27
2019-02-08T10:28:44.825Z,10.76
2019-02-08T10:29:44.844Z,10.74
2019-02-08T10:30:44.799Z,10.78
2019-02-08T10:31:44.796Z,10.72
2019-02-08T10:32:44.785Z,10.54
2019-02-08T10:33:44.777Z,10.26
2019-02-08T10:34:44.767Z,10.35
2019-02-08T10:35:44.767Z,10.57
2019-02-08T10:36:44.740Z,10.37
2019-02-08T10:37:44.726Z,10.23
2019-02-08T10:38:44.714Z,10.17
2019-02-08T10:39:44.710Z,10.30
2019-02-08T10:40:44.733Z,10.44
2019-02-08T10:41:44.681Z,10.57
2019-02-08T10:42:44.670Z,10.68
2019-02-08T10:43:44.668Z,10.46
2019-02-08T10:44:44.656Z,10.25
2019-02-08T10:45:44.652Z,10.30
2019-02-08T10:46:44.659Z,10.13
2019-02-08T10:47:44.618Z,10.56
2019-02-08T10:48:44.608Z,10.90
2019-02-08T10:49:44.594Z,10.93
2019-02-08T10:50:44.587Z,11.02
2019-02-08T10:51:44.602Z,10.84
2019-02-08T10:52:44.606Z,10.87
2019-02-08T10:53:44.560Z,10.82
2019-02-08T10:54:44.549Z,10.84
2019-02-08T10:55:44.535Z,10.76
2019-02-08T10:56:44.537Z,10.61
2019-02-08T10:57:44.517Z,10.49
2019-02-08T10:58:44.538Z,10.37
2019-02-08T10:59:44.489Z,10.10
2019-02-08T11:00:44.480Z,10.04
2019-02-08T11:01:44.468Z,10.01
2019-02-08T11:02:44.457Z,10.13
2019-02-08T11:03:44.453Z,9.94
2019-02-08T11:04:44.460Z,9.82
2019-02-08T11:05:44.432Z,9.74
2019-02-08T11:06:44.421Z,9.77
2019-02-08T11:07:44.403Z,9.80
2019-02-08T11:08:44.417Z,9.98
2019-02-08T11:09:44.401Z,10.02
2019-02-08T11:10:44.369Z,9.87
2019-02-08T11:11:44.366Z,9.69
2019-02-08T11:12:44.359Z,9.62
2019-02-08T11:13:44.339Z,9.69
2019-02-08T11:14:44.349Z,9.64
2019-02-08T11:15:44.326Z,9.59
2019-02-08T11:16:44.310Z,9.51
2019-02-08T11:17:44.301Z,9.44
2019-02-08T11:18:44.289Z,9.61
2019-02-08T11:19:44.304Z,9.58
2019-02-08T11:20:44.260Z,9.65
2019-02-08T11:21:44.257Z,9.74
2019-02-08T11:22:44.242Z,9.87
2019-02-08T11:23:44.234Z,9.86
2019-02-08T11:24:44.222Z,9.82
2019-02-08T11:25:44.250Z,9.94
2019-02-08T11:26:44.203Z,9.99
2019-02-08T11:27:44.218Z,10.20
2019-02-08T11:28:44.177Z,10.10
2019-02-08T11:29:44.168Z,10.22
2019-02-08T11:30:44.191Z,10.07
2019-02-08T11:31:44.142Z,10.10
2019-02-08T11:32:44.136Z,10.30
2019-02-08T11:33:44.123Z,10.48
2019-02-08T11:34:44.113Z,10.49
2019-02-08T11:35:44.106Z,10.37
2019-02-08T11:36:44.133Z,10.33
2019-02-08T11:37:44.084Z,10.33
2019-02-08T11:38:44.073Z,10.37
2019-02-08T11:39:44.074Z,10.41
2019-02-08T11:40:44.047Z,10.51
2019-02-08T11:41:44.034Z,10.42
2019-02-08T11:42:44.054Z,10.35
2019-02-08T11:43:44.027Z,10.09
2019-02-08T11:44:44.013Z,9.83
2019-02-08T11:45:43.988Z,9.95
2019-02-08T11:46:43.978Z,10.01
2019-02-08T11:47:43.987Z,10.12
2019-02-08T11:48:43.985Z,10.30
2019-02-08T11:49:43.950Z,10.37
2019-02-08T11:50:43.939Z,10.56
2019-02-08T11:51:43.926Z,10.42
2019-02-08T11:52:43.911Z,10.44
2019-02-08T11:53:43.939Z,10.30
2019-02-08T11:54:43.895Z,10.19
2019-02-08T11:55:43.889Z,9.99
2019-02-08T11:56:43.881Z,9.98
2019-02-08T11:57:43.865Z,10.04
2019-02-08T11:58:43.853Z,9.98
2019-02-08T11:59:43.863Z,9.86
2019-02-08T12:00:43.976Z,9.83
2019-02-08T12:01:43.826Z,9.82
2019-02-08T12:02:43.811Z,9.84
2019-02-08T12:03:43.793Z,9.89
2019-02-08T12:04:43.811Z,9.94
2019-02-08T12:05:43.770Z,9.98
2019-02-08T12:06:43.761Z,10.01
2019-02-08T12:07:43.755Z,9.95
2019-02-08T12:08:43.745Z,9.89
2019-02-08T12:09:43.748Z,9.80
2019-02-08T12:10:43.747Z,9.64
2019-02-08T12:11:44.324Z,9.72
2019-02-08T12:12:43.831Z,9.66
2019-02-08T12:13:43.688Z,9.68
2019-02-08T12:14:43.678Z,9.79
2019-02-08T12:15:43.704Z,9.74
2019-02-08T12:16:43.664Z,9.87
2019-02-08T12:17:43.646Z,9.76
2019-02-08T12:18:43.635Z,9.89
2019-02-08T12:19:43.628Z,10.04
2019-02-08T12:20:43.618Z,10.12
2019-02-08T12:21:43.635Z,10.12
2019-02-08T12:22:43.605Z,9.99
2019-02-08T12:23:43.579Z,9.99
2019-02-08T12:24:43.584Z,9.97
2019-02-08T12:25:43.598Z,9.91
2019-02-08T12:26:43.578Z,9.79
2019-02-08T12:27:43.580Z,9.68
2019-02-08T12:28:43.575Z,9.62
2019-02-08T12:29:43.566Z,9.69
2019-02-08T12:30:43.518Z,9.68
2019-02-08T12:31:43.534Z,9.76
2019-02-08T12:32:43.539Z,9.79
2019-02-08T12:33:43.535Z,9.92
2019-02-08T12:34:43.515Z,9.91
2019-02-08T12:35:43.461Z,9.94
2019-02-08T12:36:43.493Z,9.86
2019-02-08T12:37:43.455Z,9.94
2019-02-08T12:38:43.467Z,9.97
2019-02-08T12:39:43.444Z,10.01
2019-02-08T12:40:43.415Z,9.87
2019-02-08T12:41:43.395Z,9.72
2019-02-08T12:42:43.432Z,9.68
2019-02-08T12:43:43.425Z,9.69
2019-02-08T12:44:43.397Z,9.87
2019-02-08T12:45:43.382Z,9.83
2019-02-08T12:46:43.442Z,9.97
2019-02-08T12:47:43.347Z,9.89
2019-02-08T12:48:43.370Z,9.87
2019-02-08T12:49:43.360Z,9.76
2019-02-08T12:50:43.308Z,9.64
2019-02-08T12:51:43.311Z,9.66
2019-02-08T12:52:43.353Z,9.59
2019-02-08T12:53:43.352Z,9.55
2019-02-08T12:54:43.327Z,9.46
2019-02-08T12:55:43.289Z,9.41
2019-02-08T12:56:45.634Z,9.43
2019-02-08T12:57:43.310Z,9.43
2019-02-08T12:58:43.260Z,9.54
2019-02-08T12:59:43.255Z,9.55
2019-02-08T13:00:43.223Z,9.58
2019-02-08T13:01:43.273Z,9.50
2019-02-08T13:02:43.181Z,9.59
2019-02-08T13:03:43.236Z,9.66
2019-02-08T13:04:43.184Z,9.69
2019-02-08T13:05:43.205Z,9.76
2019-02-08T13:06:43.173Z,9.74
2019-02-08T13:07:43.153Z,9.54
2019-02-08T13:08:43.182Z,9.40
2019-02-08T13:09:43.150Z,9.46
2019-02-08T13:10:43.106Z,9.40
2019-02-08T13:11:43.109Z,9.41
2019-02-08T13:12:43.126Z,9.54